createdAt,value
2023-01-20T00:01:43.231Z,8.88
2023-01-20T00:04:11.911Z,6.20
2023-01-20T00:06:40.511Z,5.50
2023-01-20T00:09:09.412Z,5.65
2023-01-20T00:11:38.022Z,6.25
2023-01-20T00:14:08.185Z,5.20
2023-01-20T00:16:36.898Z,5.80
2023-01-20T00:19:05.669Z,5.85
2023-01-20T00:21:35.096Z,5.10
2023-01-20T00:24:03.949Z,6.03
2023-01-20T00:26:32.594Z,5.82
2023-01-20T00:29:01.280Z,4.65
2023-01-20T00:31:32.123Z,4.47
2023-01-20T00:34:01.888Z,4.95
2023-01-20T00:36:32.334Z,4.28
2023-01-20T00:39:01.416Z,3.90
2023-01-20T00:41:30.148Z,4.13
2023-01-20T00:43:58.953Z,4.30
2023-01-20T00:46:27.712Z,4.40
2023-01-20T00:49:00.139Z,4.80
2023-01-20T00:51:28.947Z,4.68
2023-01-20T00:53:57.639Z,4.18
2023-01-20T00:56:26.244Z,4.22
2023-01-20T00:58:56.188Z,3.53
2023-01-20T01:01:25.002Z,4.43
2023-01-20T01:03:55.289Z,4.47
2023-01-20T01:06:25.341Z,3.95
2023-01-20T01:08:54.105Z,3.42
2023-01-20T01:11:22.777Z,4.18
2023-01-20T01:13:51.545Z,3.28
2023-01-20T01:16:20.309Z,3.47
2023-01-20T01:18:48.920Z,3.55
2023-01-20T01:21:18.195Z,3.90
2023-01-20T01:23:48.336Z,3.78
2023-01-20T01:26:19.218Z,3.65
2023-01-20T01:28:49.718Z,4.18
2023-01-20T01:31:22.052Z,3.50
2023-01-20T01:33:53.781Z,3.40
2023-01-20T01:36:22.439Z,3.45
2023-01-20T01:38:57.603Z,3.25
2023-01-20T01:41:28.036Z,3.35
2023-01-20T01:44:04.432Z,3.05
2023-01-20T01:46:33.040Z,2.60
2023-01-20T01:49:02.914Z,2.90
2023-01-20T01:51:34.228Z,3.08
2023-01-20T01:54:06.641Z,2.58
2023-01-20T01:56:35.691Z,2.88
2023-01-20T01:59:05.317Z,2.63
2023-01-20T02:01:38.005Z,2.25
2023-01-20T02:04:08.658Z,2.97
2023-01-20T02:06:40.483Z,2.58
2023-01-20T02:09:10.507Z,3.00
2023-01-20T02:11:41.619Z,2.53
2023-01-20T02:14:10.518Z,2.30
2023-01-20T02:16:45.446Z,3.42
2023-01-20T02:19:23.925Z,3.28
2023-01-20T02:22:19.654Z,3.30
2023-01-20T02:25:18.244Z,2.65
2023-01-20T02:28:07.713Z,3.42
2023-01-20T02:31:06.327Z,2.83
2023-01-20T02:33:42.052Z,2.90
2023-01-20T02:36:12.021Z,2.92
2023-01-20T02:38:44.072Z,2.63
2023-01-20T02:41:15.824Z,2.67
2023-01-20T02:43:46.974Z,2.55
2023-01-20T02:46:17.857Z,2.40
2023-01-20T02:48:50.432Z,2.53
2023-01-20T02:51:20.658Z,2.53
2023-01-20T02:53:51.362Z,2.47
2023-01-20T02:56:21.256Z,3.33
2023-01-20T02:58:51.133Z,3.45
2023-01-20T03:01:22.771Z,3.25
2023-01-20T03:03:54.065Z,2.60
2023-01-20T03:06:24.431Z,2.75
2023-01-20T03:08:54.668Z,2.75
2023-01-20T03:11:23.362Z,2.40
2023-01-20T03:13:55.025Z,2.58
2023-01-20T03:16:32.382Z,2.60
2023-01-20T03:19:02.627Z,2.40
2023-01-20T03:21:31.294Z,2.25
2023-01-20T03:24:02.042Z,2.70
2023-01-20T03:26:31.243Z,2.35
2023-01-20T03:29:00.128Z,2.08
2023-01-20T03:31:32.101Z,2.45
2023-01-20T03:34:04.099Z,2.47
2023-01-20T03:36:34.211Z,2.55
2023-01-20T03:39:03.033Z,2.75
2023-01-20T03:41:37.420Z,2.70
2023-01-20T03:44:11.543Z,2.55
2023-01-20T03:46:44.104Z,2.90
2023-01-20T03:49:19.767Z,2.70
2023-01-20T03:51:51.620Z,2.35
2023-01-20T03:54:24.418Z,2.08
2023-01-20T03:56:55.705Z,2.47
2023-01-20T03:59:24.726Z,2.50
2023-01-20T04:01:53.960Z,1.73
2023-01-20T04:04:24.173Z,1.80
2023-01-20T04:06:53.180Z,2.60
2023-01-20T04:09:24.718Z,2.22
2023-01-20T04:11:53.428Z,1.92
2023-01-20T04:14:22.572Z,2.55
2023-01-20T04:16:53.037Z,2.72
2023-01-20T04:19:21.849Z,2.60
2023-01-20T04:21:54.221Z,2.78
2023-01-20T04:24:25.845Z,2.53
2023-01-20T04:26:54.504Z,2.60
2023-01-20T04:29:23.182Z,1.92
2023-01-20T04:31:51.936Z,2.13
2023-01-20T04:34:20.708Z,1.55
2023-01-20T04:36:49.405Z,2.28
2023-01-20T04:39:19.405Z,2.17
2023-01-20T04:41:48.256Z,2.03
2023-01-20T04:44:25.951Z,1.90
2023-01-20T04:46:58.094Z,2.10
2023-01-20T04:49:26.844Z,1.90
2023-01-20T04:51:55.570Z,2.28
2023-01-20T04:54:25.532Z,1.98
2023-01-20T04:56:54.522Z,1.75
2023-01-20T04:59:23.409Z,2.13
2023-01-20T05:01:52.221Z,2.17
2023-01-20T05:04:23.706Z,2.10
2023-01-20T05:06:52.446Z,2.33
2023-01-20T05:09:21.192Z,2.50
2023-01-20T05:11:55.270Z,2.53
2023-01-20T05:14:23.957Z,1.98
2023-01-20T05:16:52.738Z,1.90
2023-01-20T05:19:21.369Z,2.45
2023-01-20T05:21:49.976Z,3.13
2023-01-20T05:24:18.640Z,2.25
2023-01-20T05:26:47.365Z,2.30
2023-01-20T05:29:17.606Z,1.92
2023-01-20T05:31:46.425Z,1.92
2023-01-20T05:34:16.523Z,2.28
2023-01-20T05:36:45.518Z,2.00
2023-01-20T05:39:14.188Z,1.85
2023-01-20T05:41:42.947Z,2.10
2023-01-20T05:44:11.717Z,2.20
2023-01-20T05:46:41.873Z,2.33
2023-01-20T05:49:12.472Z,1.98
2023-01-20T05:51:41.298Z,2.00
2023-01-20T05:54:10.318Z,2.10
2023-01-20T05:56:39.083Z,2.03
2023-01-20T05:59:08.094Z,2.28
2023-01-20T06:01:44.101Z,2.08
2023-01-20T06:04:14.169Z,2.33
2023-01-20T06:06:42.836Z,2.30
2023-01-20T06:09:12.200Z,1.92
2023-01-20T06:11:42.883Z,2.13
2023-01-20T06:14:11.556Z,1.92
2023-01-20T06:16:40.153Z,1.73
2023-01-20T06:19:16.254Z,2.97
2023-01-20T06:21:47.001Z,2.05
2023-01-20T06:24:15.851Z,2.03
2023-01-20T06:26:44.840Z,2.08
2023-01-20T06:29:13.464Z,2.38
2023-01-20T06:31:42.163Z,2.50
2023-01-20T06:34:10.767Z,2.25
2023-01-20T06:36:41.032Z,2.25
2023-01-20T06:39:11.100Z,2.35
2023-01-20T06:41:39.848Z,2.30
2023-01-20T06:44:08.505Z,2.63
2023-01-20T06:46:37.142Z,3.50
2023-01-20T06:49:06.086Z,3.03
2023-01-20T06:51:35.167Z,2.83
2023-01-20T06:54:04.017Z,3.10
2023-01-20T06:56:34.029Z,2.80
2023-01-20T06:59:02.721Z,2.65
2023-01-20T07:01:32.232Z,3.38
2023-01-20T07:04:03.145Z,3.67
2023-01-20T07:06:32.778Z,3.38
2023-01-20T07:09:02.176Z,4.00
2023-01-20T07:11:32.074Z,4.28
2023-01-20T07:14:02.180Z,3.88
2023-01-20T07:16:30.865Z,3.90
2023-01-20T07:18:59.723Z,4.10
2023-01-20T07:21:28.427Z,4.13
2023-01-20T07:24:00.316Z,4.63
2023-01-20T07:26:29.215Z,4.22
2023-01-20T07:28:59.248Z,3.30
2023-01-20T07:31:31.401Z,3.97
2023-01-20T07:34:00.429Z,4.13
2023-01-20T07:36:32.774Z,4.22
2023-01-20T07:39:01.498Z,4.18
2023-01-20T07:41:30.329Z,4.10
2023-01-20T07:43:58.998Z,3.88
2023-01-20T07:46:29.038Z,4.22
2023-01-20T07:48:58.097Z,3.58
2023-01-20T07:51:33.869Z,3.47
2023-01-20T07:54:04.416Z,3.67
2023-01-20T07:56:33.301Z,3.33
2023-01-20T07:59:01.909Z,2.75
2023-01-20T08:01:32.949Z,3.47
2023-01-20T08:04:02.093Z,3.90
2023-01-20T08:06:31.136Z,3.58
2023-01-20T08:09:01.911Z,3.00
2023-01-20T08:11:32.246Z,3.38
2023-01-20T08:14:00.913Z,3.78
2023-01-20T08:16:29.672Z,3.70
2023-01-20T08:18:59.973Z,3.78
2023-01-20T08:21:29.394Z,3.55
2023-01-20T08:24:01.721Z,3.40
2023-01-20T08:26:31.306Z,3.90
2023-01-20T08:29:04.196Z,4.47
2023-01-20T08:31:32.962Z,3.80
2023-01-20T08:34:03.094Z,4.35
2023-01-20T08:36:32.668Z,5.75
2023-01-20T08:39:04.713Z,7.13
2023-01-20T08:41:35.164Z,4.93
2023-01-20T08:44:04.576Z,4.40
2023-01-20T08:46:33.381Z,4.20
2023-01-20T08:49:03.412Z,4.50
2023-01-20T08:51:32.927Z,3.88
2023-01-20T08:54:06.943Z,3.97
2023-01-20T08:56:36.895Z,4.40
2023-01-20T08:59:06.067Z,4.43
2023-01-20T09:01:37.830Z,4.88
2023-01-20T09:04:08.353Z,4.22
2023-01-20T09:06:43.514Z,5.15
2023-01-20T09:09:12.537Z,7.32
2023-01-20T09:11:44.662Z,7.00
2023-01-20T09:14:13.503Z,5.53
2023-01-20T09:16:42.224Z,5.60
2023-01-20T09:19:12.269Z,5.80
2023-01-20T09:21:41.000Z,6.40
2023-01-20T09:24:09.918Z,7.10
2023-01-20T09:26:42.105Z,7.38
2023-01-20T09:29:12.694Z,6.93
2023-01-20T09:31:44.602Z,8.40
2023-01-20T09:34:19.314Z,8.82
2023-01-20T09:36:51.334Z,9.00
2023-01-20T09:39:37.564Z,7.25
2023-01-20T09:42:31.470Z,7.13
2023-01-20T09:45:07.653Z,6.05
2023-01-20T09:47:39.151Z,6.47
2023-01-20T09:50:37.621Z,5.57
2023-01-20T09:53:10.688Z,6.15
2023-01-20T09:55:44.920Z,6.90
2023-01-20T09:58:18.167Z,5.30
2023-01-20T10:00:50.266Z,5.75
2023-01-20T10:03:21.949Z,5.20
2023-01-20T10:05:53.045Z,4.93
2023-01-20T10:08:37.470Z,4.55
2023-01-20T10:11:07.888Z,4.88
2023-01-20T10:13:40.109Z,4.95
2023-01-20T10:16:12.439Z,4.47
2023-01-20T10:18:45.142Z,4.13
2023-01-20T10:21:18.265Z,4.00
2023-01-20T10:23:51.382Z,3.97
2023-01-20T10:26:23.021Z,4.05
2023-01-20T10:28:55.046Z,3.72
2023-01-20T10:31:26.329Z,4.20
2023-01-20T10:33:56.360Z,4.10
2023-01-20T10:36:28.937Z,3.95
2023-01-20T10:38:59.708Z,3.72
2023-01-20T10:41:31.641Z,3.72
2023-01-20T10:44:01.443Z,3.90
2023-01-20T10:46:38.184Z,4.25
2023-01-20T10:49:22.577Z,4.20
2023-01-20T10:51:56.128Z,3.90
2023-01-20T10:54:29.099Z,4.53
2023-01-20T10:56:58.747Z,3.72
2023-01-20T10:59:30.322Z,4.10
2023-01-20T11:02:11.534Z,4.00
2023-01-20T11:04:41.242Z,4.40
2023-01-20T11:07:15.290Z,4.47
2023-01-20T11:09:45.785Z,4.15
2023-01-20T11:12:17.029Z,4.43
2023-01-20T11:14:45.840Z,4.45
2023-01-20T11:17:16.943Z,4.95
2023-01-20T11:19:48.295Z,5.13
2023-01-20T11:22:20.879Z,4.95
2023-01-20T11:24:50.058Z,4.70
2023-01-20T11:27:19.835Z,4.70
2023-01-20T11:29:50.931Z,4.65
2023-01-20T11:32:33.698Z,5.35
2023-01-20T11:35:05.078Z,5.20
2023-01-20T11:37:47.648Z,4.68
2023-01-20T11:40:21.375Z,4.65
2023-01-20T11:42:51.298Z,4.70
2023-01-20T11:45:27.706Z,4.30
2023-01-20T11:48:04.169Z,4.05
2023-01-20T11:50:37.896Z,4.45
2023-01-20T11:53:21.834Z,3.78
2023-01-20T11:55:51.934Z,3.30
2023-01-20T11:58:22.475Z,4.15
2023-01-20T12:00:52.816Z,3.92
2023-01-20T12:03:36.348Z,4.15
2023-01-20T12:06:09.164Z,3.65
2023-01-20T12:08:46.761Z,3.88
2023-01-20T12:11:16.776Z,4.20
2023-01-20T12:14:05.446Z,3.78
2023-01-20T12:16:35.125Z,4.05
2023-01-20T12:19:05.195Z,4.07
2023-01-20T12:21:36.751Z,3.83
2023-01-20T12:24:11.951Z,4.40
2023-01-20T12:26:41.415Z,4.00
2023-01-20T12:29:15.601Z,4.53
2023-01-20T12:31:48.985Z,4.32
2023-01-20T12:34:19.132Z,4.40
2023-01-20T12:36:57.925Z,5.18
2023-01-20T12:39:34.323Z,4.20
2023-01-20T12:42:20.300Z,4.97
2023-01-20T12:44:51.691Z,4.65
2023-01-20T12:47:32.984Z,5.03
2023-01-20T12:50:15.367Z,5.25
2023-01-20T12:52:49.031Z,5.22
2023-01-20T12:55:25.189Z,5.35
2023-01-20T12:58:00.030Z,5.63
2023-01-20T13:00:36.905Z,5.72
2023-01-20T13:03:26.352Z,6.30
2023-01-20T13:06:10.004Z,6.40
2023-01-20T13:08:44.696Z,5.47
2023-01-20T13:11:18.662Z,5.95
2023-01-20T13:13:57.534Z,5.13
2023-01-20T13:16:33.582Z,5.82
2023-01-20T13:19:04.638Z,5.47
2023-01-20T13:21:33.810Z,4.25
2023-01-20T13:24:03.559Z,4.70
2023-01-20T13:26:34.577Z,3.67
2023-01-20T13:29:03.323Z,4.75
2023-01-20T13:31:45.733Z,3.60
2023-01-20T13:34:35.025Z,3.55
2023-01-20T13:37:22.374Z,3.45
2023-01-20T13:39:52.120Z,3.75
2023-01-20T13:42:32.163Z,3.25
2023-01-20T13:45:17.544Z,3.60
2023-01-20T13:47:57.528Z,3.47
2023-01-20T13:50:27.597Z,4.15
2023-01-20T13:53:06.704Z,4.00
2023-01-20T13:56:08.616Z,3.42
2023-01-20T13:58:39.124Z,4.18
2023-01-20T14:01:08.960Z,3.85
2023-01-20T14:03:38.363Z,3.80
2023-01-20T14:06:20.297Z,3.85
2023-01-20T14:08:49.855Z,3.28
2023-01-20T14:11:19.516Z,4.03
2023-01-20T14:13:55.031Z,5.53
2023-01-20T14:16:25.301Z,5.03
2023-01-20T14:18:56.369Z,5.28
2023-01-20T14:21:26.318Z,7.88
2023-01-20T14:23:55.301Z,8.30
2023-01-20T14:26:25.483Z,8.05
2023-01-20T14:28:57.226Z,6.95
2023-01-20T14:31:35.164Z,6.45
2023-01-20T14:34:05.996Z,5.82
2023-01-20T14:36:35.078Z,6.53
2023-01-20T14:39:07.143Z,6.50
2023-01-20T14:41:36.689Z,5.90
2023-01-20T14:44:17.497Z,6.22
2023-01-20T14:46:46.401Z,5.93
2023-01-20T14:49:17.350Z,6.10
2023-01-20T14:51:47.177Z,5.93
2023-01-20T14:54:31.966Z,5.72
2023-01-20T14:57:01.104Z,6.45
2023-01-20T14:59:31.156Z,7.15
2023-01-20T15:02:02.839Z,14.43
2023-01-20T15:04:37.308Z,15.85
2023-01-20T15:07:07.988Z,15.02
2023-01-20T15:09:36.944Z,17.33
2023-01-20T15:12:24.423Z,16.15
2023-01-20T15:15:00.760Z,15.50
2023-01-20T15:17:29.464Z,14.32
2023-01-20T15:19:58.590Z,12.85
2023-01-20T15:22:28.898Z,12.02
2023-01-20T15:24:57.509Z,9.75
2023-01-20T15:27:28.142Z,9.32
2023-01-20T15:30:05.681Z,8.75
2023-01-20T15:32:34.392Z,8.00
2023-01-20T15:35:03.141Z,7.82
2023-01-20T15:37:32.274Z,6.97
2023-01-20T15:40:00.912Z,6.70
2023-01-20T15:42:29.552Z,7.07
2023-01-20T15:44:58.297Z,7.82
2023-01-20T15:47:31.079Z,7.30
2023-01-20T15:50:00.032Z,7.20
2023-01-20T15:52:28.754Z,6.72
2023-01-20T15:54:57.470Z,6.70
2023-01-20T15:57:26.188Z,6.07
2023-01-20T15:59:54.918Z,5.70
2023-01-20T16:02:24.263Z,6.45
2023-01-20T16:04:54.564Z,5.47
2023-01-20T16:07:24.389Z,5.38
2023-01-20T16:09:53.112Z,5.70
2023-01-20T16:12:21.766Z,5.75
2023-01-20T16:14:50.541Z,5.88
2023-01-20T16:17:22.038Z,7.07
2023-01-20T16:19:51.255Z,7.15
2023-01-20T16:22:21.304Z,5.43
2023-01-20T16:24:51.281Z,5.32
2023-01-20T16:27:21.142Z,5.38
2023-01-20T16:29:50.523Z,6.05
2023-01-20T16:32:22.301Z,6.45
2023-01-20T16:34:51.389Z,7.20
2023-01-20T16:37:21.488Z,6.95
2023-01-20T16:39:50.349Z,7.32
2023-01-20T16:42:19.089Z,8.18
2023-01-20T16:44:47.735Z,7.38
2023-01-20T16:47:16.490Z,6.90
2023-01-20T16:49:45.150Z,7.30
2023-01-20T16:52:13.996Z,7.55
2023-01-20T16:54:44.192Z,7.28
2023-01-20T16:57:12.850Z,13.98
2023-01-20T16:59:41.604Z,12.02
2023-01-20T17:02:12.150Z,11.00
2023-01-20T17:04:41.790Z,9.73
2023-01-20T17:07:10.805Z,9.10
2023-01-20T17:09:39.486Z,8.40
2023-01-20T17:12:09.729Z,9.35
2023-01-20T17:14:38.391Z,13.70
2023-01-20T17:17:07.242Z,10.70
2023-01-20T17:19:36.010Z,11.25
2023-01-20T17:22:04.683Z,14.38
2023-01-20T17:24:34.046Z,14.68
2023-01-20T17:27:02.727Z,15.90
2023-01-20T17:29:32.940Z,14.23
2023-01-20T17:32:01.762Z,13.35
2023-01-20T17:34:30.519Z,11.68
2023-01-20T17:36:59.200Z,11.05
2023-01-20T17:39:27.989Z,11.05
2023-01-20T17:41:56.732Z,11.32
2023-01-20T17:44:25.368Z,11.77
2023-01-20T17:46:55.399Z,16.05
2023-01-20T17:49:24.114Z,15.07
2023-01-20T17:51:52.782Z,14.55
2023-01-20T17:54:21.483Z,11.40
2023-01-20T17:56:50.133Z,10.65
2023-01-20T17:59:19.044Z,11.00
2023-01-20T18:01:48.331Z,11.40
2023-01-20T18:04:18.426Z,9.55
2023-01-20T18:06:49.379Z,9.32
2023-01-20T18:09:18.018Z,9.93
2023-01-20T18:11:47.133Z,10.13
2023-01-20T18:14:16.060Z,12.52
2023-01-20T18:16:44.785Z,16.15
2023-01-20T18:19:14.137Z,17.65
2023-01-20T18:21:44.713Z,17.35
2023-01-20T18:24:13.677Z,15.82
2023-01-20T18:26:43.692Z,13.73
2023-01-20T18:29:14.639Z,12.88
2023-01-20T18:31:44.773Z,13.20
2023-01-20T18:34:15.817Z,12.70
2023-01-20T18:36:47.130Z,12.43
2023-01-20T18:39:16.811Z,10.75
2023-01-20T18:41:45.563Z,11.50
2023-01-20T18:44:14.609Z,11.38
2023-01-20T18:46:43.295Z,11.70
2023-01-20T18:49:16.953Z,11.10
2023-01-20T18:51:47.052Z,10.80
2023-01-20T18:54:18.333Z,10.55
2023-01-20T18:56:47.481Z,10.65
2023-01-20T18:59:16.185Z,11.20
2023-01-20T19:01:45.149Z,10.30
2023-01-20T19:04:14.550Z,10.20
2023-01-20T19:06:43.941Z,12.05
2023-01-20T19:09:15.860Z,10.98
2023-01-20T19:11:44.497Z,12.45
2023-01-20T19:14:14.083Z,13.52
2023-01-20T19:16:45.535Z,12.48
2023-01-20T19:19:14.635Z,13.13
2023-01-20T19:21:43.556Z,15.07
2023-01-20T19:24:17.826Z,20.70
2023-01-20T19:26:48.105Z,18.80
2023-01-20T19:29:18.757Z,14.52
2023-01-20T19:31:59.588Z,12.38
2023-01-20T19:34:28.424Z,12.93
2023-01-20T19:36:58.825Z,12.73
2023-01-20T19:39:27.663Z,11.65
2023-01-20T19:41:57.729Z,13.98
2023-01-20T19:44:27.753Z,14.23
2023-01-20T19:47:02.452Z,14.85
2023-01-20T19:49:31.231Z,13.98
2023-01-20T19:52:00.770Z,14.82
2023-01-20T19:54:30.963Z,13.95
2023-01-20T19:57:01.718Z,13.88
2023-01-20T19:59:30.383Z,14.32
2023-01-20T20:01:59.125Z,13.95
2023-01-20T20:04:27.808Z,14.93
2023-01-20T20:06:56.925Z,13.95
2023-01-20T20:09:26.906Z,14.27
2023-01-20T20:11:56.185Z,12.82
2023-01-20T20:14:29.673Z,13.18
2023-01-20T20:16:58.290Z,13.48
2023-01-20T20:19:27.073Z,12.25
2023-01-20T20:21:56.543Z,11.68
2023-01-20T20:24:25.275Z,12.55
2023-01-20T20:26:54.258Z,13.57
2023-01-20T20:29:23.737Z,13.23
2023-01-20T20:31:54.235Z,13.07
2023-01-20T20:34:23.863Z,13.70
2023-01-20T20:36:52.456Z,12.68
2023-01-20T20:39:21.285Z,12.18
2023-01-20T20:41:49.992Z,11.65
2023-01-20T20:44:18.643Z,11.90
2023-01-20T20:46:49.558Z,11.70
2023-01-20T20:49:19.825Z,11.57
2023-01-20T20:51:49.095Z,10.75
2023-01-20T20:54:17.819Z,10.95
2023-01-20T20:56:46.830Z,10.18
2023-01-20T20:59:15.676Z,10.95
2023-01-20T21:01:44.572Z,9.98
2023-01-20T21:04:13.377Z,11.35
2023-01-20T21:06:43.353Z,10.30
2023-01-20T21:09:13.421Z,10.90
2023-01-20T21:11:43.197Z,11.07
2023-01-20T21:14:12.192Z,10.80
2023-01-20T21:16:49.800Z,10.23
2023-01-20T21:19:18.455Z,11.23
2023-01-20T21:21:48.809Z,11.02
2023-01-20T21:24:17.680Z,10.30
2023-01-20T21:26:46.389Z,11.90
2023-01-20T21:29:17.754Z,12.32
2023-01-20T21:31:47.227Z,11.85
2023-01-20T21:34:16.939Z,11.88
2023-01-20T21:36:45.671Z,11.77
2023-01-20T21:39:16.679Z,12.50
2023-01-20T21:41:45.756Z,12.90
2023-01-20T21:44:32.405Z,12.73
2023-01-20T21:47:01.992Z,12.10
2023-01-20T21:49:48.251Z,12.73
2023-01-20T21:52:36.174Z,13.07
2023-01-20T21:55:06.905Z,12.93
2023-01-20T21:57:36.001Z,13.20
2023-01-20T22:00:06.201Z,12.18
2023-01-20T22:02:43.387Z,12.65
2023-01-20T22:05:12.120Z,14.20
2023-01-20T22:07:40.773Z,13.23
2023-01-20T22:10:11.864Z,12.50
2023-01-20T22:12:40.536Z,13.45
2023-01-20T22:15:09.757Z,13.88
2023-01-20T22:17:38.544Z,14.15
2023-01-20T22:20:07.694Z,13.23
2023-01-20T22:22:36.373Z,13.55
2023-01-20T22:25:05.107Z,10.70
2023-01-20T22:27:35.101Z,11.75
2023-01-20T22:30:03.683Z,12.95
2023-01-20T22:32:32.363Z,10.45
2023-01-20T22:35:01.072Z,10.30
2023-01-20T22:37:32.397Z,10.70
2023-01-20T22:40:02.064Z,12.07
2023-01-20T22:42:30.679Z,9.68
2023-01-20T22:45:00.835Z,7.95
2023-01-20T22:47:30.449Z,6.90
2023-01-20T22:49:59.143Z,8.63
2023-01-20T22:52:27.841Z,10.40
2023-01-20T22:54:56.492Z,11.18
2023-01-20T22:57:25.213Z,11.25
2023-01-20T22:59:53.859Z,10.40
2023-01-20T23:02:23.934Z,9.27
2023-01-20T23:04:53.328Z,9.48
2023-01-20T23:07:21.983Z,9.10
2023-01-20T23:09:51.056Z,8.88
2023-01-20T23:12:19.879Z,6.68
2023-01-20T23:15:00.624Z,8.50
2023-01-20T23:17:31.963Z,8.52
2023-01-20T23:20:00.588Z,8.27
2023-01-20T23:22:30.379Z,7.30
2023-01-20T23:24:59.056Z,7.60
2023-01-20T23:27:27.629Z,7.95
2023-01-20T23:29:56.925Z,7.93
2023-01-20T23:32:25.728Z,6.25
2023-01-20T23:34:55.801Z,6.55
2023-01-20T23:37:24.693Z,6.25
2023-01-20T23:39:53.264Z,5.78
2023-01-20T23:42:22.123Z,6.00
2023-01-20T23:44:50.978Z,5.75
2023-01-20T23:47:19.894Z,5.40
2023-01-20T23:49:48.531Z,5.25
2023-01-20T23:52:19.273Z,5.93
2023-01-20T23:54:47.980Z,6.00
2023-01-20T23:57:16.728Z,6.13
2023-01-20T23:59:45.599Z,6.32
